DLH2L8 EDDB-EDDH
Flight info
| Callsign | DLH2L8 |
|---|---|
| Flight time | 0h 37m |
| Altitude | 24000 |
| Route | SUKIP3N SUKIP M748 RARUP RARUP6A |
| Aircraft | A20N/M-SDE2E3FGHIRWXY/LB1 |
Departure
| Time | 2026-05-07 20:13 |
|---|---|
| Airport | Berlin Brandenburg Airport (EDDB) |
Arrival
| Time | 2026-05-07 20:50 |
|---|---|
| Airport | Hamburg Helmut Schmidt Airport (EDDH) |
| Time | Latitude | Longitude | Altitude | Speed | Heading |
|---|---|---|---|---|---|
| 2026-05-07 19:36 | 52.36139 | 13.50767 | 152 ft | 0 kts | 69° |
| 2026-05-07 19:55 | 52.36135 | 13.50750 | 152 ft | 2 kts | 69° |
| 2026-05-07 19:56 | 52.36130 | 13.50727 | 152 ft | 2 kts | 69° |
| 2026-05-07 19:56 | 52.36123 | 13.50698 | 152 ft | 3 kts | 69° |
| 2026-05-07 19:56 | 52.36111 | 13.50647 | 152 ft | 3 kts | 69° |
| 2026-05-07 19:56 | 52.36109 | 13.50641 | 152 ft | 0 kts | 69° |
| 2026-05-07 19:57 | 52.36124 | 13.50617 | 152 ft | 0 kts | 225° |
| 2026-05-07 19:58 | 52.36111 | 13.50608 | 152 ft | 0 kts | 195° |
| 2026-05-07 19:59 | 52.36115 | 13.50610 | 152 ft | 0 kts | 210° |
| 2026-05-07 19:59 | 52.36113 | 13.50608 | 152 ft | 2 kts | 213° |
| 2026-05-07 19:59 | 52.36110 | 13.50604 | 152 ft | 0 kts | 215° |
| 2026-05-07 20:00 | 52.36109 | 13.50605 | 152 ft | 1 kts | 205° |
| 2026-05-07 20:00 | 52.36102 | 13.50611 | 152 ft | 0 kts | 162° |
| 2026-05-07 20:02 | 52.36093 | 13.50617 | 152 ft | 8 kts | 157° |
| 2026-05-07 20:02 | 52.36019 | 13.50669 | 152 ft | 14 kts | 157° |
| 2026-05-07 20:03 | 52.35937 | 13.50725 | 158 ft | 11 kts | 157° |
| 2026-05-07 20:03 | 52.35838 | 13.50790 | 158 ft | 19 kts | 159° |
| 2026-05-07 20:03 | 52.35819 | 13.50802 | 158 ft | 0 kts | 159° |
| 2026-05-07 20:04 | 52.35811 | 13.50798 | 158 ft | 3 kts | 189° |
| 2026-05-07 20:04 | 52.35802 | 13.50793 | 158 ft | 1 kts | 211° |
| 2026-05-07 20:05 | 52.35780 | 13.50698 | 158 ft | 14 kts | 252° |
| 2026-05-07 20:05 | 52.35734 | 13.50469 | 158 ft | 26 kts | 250° |
| 2026-05-07 20:05 | 52.35667 | 13.50181 | 158 ft | 28 kts | 249° |
| 2026-05-07 20:05 | 52.35595 | 13.49874 | 158 ft | 30 kts | 247° |
| 2026-05-07 20:06 | 52.35513 | 13.49547 | 158 ft | 32 kts | 248° |
| 2026-05-07 20:06 | 52.35433 | 13.49212 | 158 ft | 32 kts | 249° |
| 2026-05-07 20:06 | 52.35390 | 13.49031 | 158 ft | 0 kts | 249° |
| 2026-05-07 20:06 | 52.35388 | 13.49024 | 158 ft | 3 kts | 249° |
| 2026-05-07 20:07 | 52.35357 | 13.48884 | 158 ft | 21 kts | 250° |
| 2026-05-07 20:07 | 52.35298 | 13.48642 | 158 ft | 24 kts | 248° |
| 2026-05-07 20:07 | 52.35280 | 13.48569 | 158 ft | 0 kts | 246° |
| 2026-05-07 20:10 | 52.35279 | 13.48565 | 158 ft | 2 kts | 246° |
| 2026-05-07 20:10 | 52.35216 | 13.48489 | 158 ft | 16 kts | 178° |
| 2026-05-07 20:10 | 52.35127 | 13.48549 | 158 ft | 0 kts | 134° |
| 2026-05-07 20:11 | 52.35120 | 13.48565 | 158 ft | 11 kts | 123° |
| 2026-05-07 20:11 | 52.35094 | 13.48720 | 158 ft | 17 kts | 98° |
| 2026-05-07 20:11 | 52.35081 | 13.48926 | 158 ft | 19 kts | 91° |
| 2026-05-07 20:11 | 52.35094 | 13.49157 | 158 ft | 20 kts | 72° |
| 2026-05-07 20:12 | 52.35099 | 13.49180 | 158 ft | 0 kts | 68° |
| 2026-05-07 20:12 | 52.35133 | 13.49322 | 159 ft | 42 kts | 68° |
| 2026-05-07 20:12 | 52.35328 | 13.50141 | 157 ft | 117 kts | 69° |
| 2026-05-07 20:12 | 52.35707 | 13.51723 | 199 ft | 176 kts | 69° |
| 2026-05-07 20:13 | 52.36103 | 13.53621 | 1090 ft | 162 kts | 85° |
| 2026-05-07 20:13 | 52.35685 | 13.54994 | 2424 ft | 137 kts | 138° |
| 2026-05-07 20:13 | 52.34734 | 13.55635 | 2873 ft | 163 kts | 171° |
| 2026-05-07 20:13 | 52.33565 | 13.55308 | 3433 ft | 179 kts | 206° |
| 2026-05-07 20:14 | 52.32438 | 13.54194 | 3924 ft | 200 kts | 202° |
| 2026-05-07 20:14 | 52.31126 | 13.53146 | 4398 ft | 220 kts | 207° |
| 2026-05-07 20:14 | 52.29775 | 13.51737 | 4861 ft | 242 kts | 212° |
| 2026-05-07 20:14 | 52.28315 | 13.50144 | 5346 ft | 264 kts | 214° |
| 2026-05-07 20:15 | 52.26919 | 13.48102 | 6056 ft | 276 kts | 235° |
| 2026-05-07 20:15 | 52.26196 | 13.45215 | 6979 ft | 279 kts | 262° |
| 2026-05-07 20:15 | 52.26100 | 13.42058 | 7934 ft | 280 kts | 271° |
| 2026-05-07 20:15 | 52.26157 | 13.38867 | 8860 ft | 284 kts | 273° |
| 2026-05-07 20:16 | 52.26229 | 13.35630 | 9808 ft | 286 kts | 272° |
| 2026-05-07 20:16 | 52.26277 | 13.32352 | 10572 ft | 296 kts | 272° |
| 2026-05-07 20:16 | 52.26380 | 13.28868 | 10892 ft | 319 kts | 281° |
| 2026-05-07 20:16 | 52.27201 | 13.25415 | 11237 ft | 336 kts | 304° |
| 2026-05-07 20:17 | 52.28647 | 13.22450 | 11969 ft | 341 kts | 312° |
| 2026-05-07 20:17 | 52.30282 | 13.19553 | 12811 ft | 345 kts | 314° |
| 2026-05-07 20:17 | 52.31943 | 13.16695 | 13619 ft | 349 kts | 314° |
| 2026-05-07 20:17 | 52.33595 | 13.13830 | 14376 ft | 352 kts | 313° |
| 2026-05-07 20:18 | 52.35262 | 13.10893 | 15195 ft | 352 kts | 313° |
| 2026-05-07 20:18 | 52.36926 | 13.07927 | 15921 ft | 356 kts | 313° |
| 2026-05-07 20:18 | 52.38606 | 13.04913 | 16628 ft | 360 kts | 313° |
| 2026-05-07 20:18 | 52.40293 | 13.01873 | 17368 ft | 362 kts | 312° |
| 2026-05-07 20:19 | 52.41992 | 12.98806 | 18092 ft | 365 kts | 312° |
| 2026-05-07 20:19 | 52.43708 | 12.95706 | 18730 ft | 369 kts | 312° |
| 2026-05-07 20:19 | 52.45436 | 12.92578 | 19333 ft | 372 kts | 312° |
| 2026-05-07 20:19 | 52.47184 | 12.89412 | 19924 ft | 376 kts | 312° |
| 2026-05-07 20:20 | 52.48946 | 12.86215 | 20507 ft | 379 kts | 312° |
| 2026-05-07 20:20 | 52.50722 | 12.82989 | 21091 ft | 383 kts | 312° |
| 2026-05-07 20:20 | 52.52515 | 12.79727 | 21670 ft | 387 kts | 312° |
| 2026-05-07 20:20 | 52.54322 | 12.76436 | 22239 ft | 390 kts | 312° |
| 2026-05-07 20:21 | 52.56148 | 12.73106 | 22801 ft | 394 kts | 312° |
| 2026-05-07 20:21 | 52.57991 | 12.69742 | 23312 ft | 399 kts | 312° |
| 2026-05-07 20:21 | 52.59855 | 12.66333 | 23822 ft | 403 kts | 312° |
| 2026-05-07 20:21 | 52.61733 | 12.62895 | 24042 ft | 405 kts | 312° |
| 2026-05-07 20:22 | 52.63612 | 12.59451 | 24096 ft | 404 kts | 312° |
| 2026-05-07 20:22 | 52.65490 | 12.56005 | 24103 ft | 404 kts | 312° |
| 2026-05-07 20:22 | 52.67364 | 12.52558 | 24103 ft | 403 kts | 312° |
| 2026-05-07 20:22 | 52.69235 | 12.49113 | 24109 ft | 404 kts | 311° |
| 2026-05-07 20:23 | 52.71107 | 12.45661 | 24106 ft | 404 kts | 311° |
| 2026-05-07 20:23 | 52.72978 | 12.42206 | 24102 ft | 404 kts | 311° |
| 2026-05-07 20:23 | 52.74849 | 12.38748 | 24106 ft | 404 kts | 311° |
| 2026-05-07 20:23 | 52.76719 | 12.35286 | 24108 ft | 404 kts | 311° |
| 2026-05-07 20:24 | 52.78589 | 12.31819 | 24108 ft | 404 kts | 311° |
| 2026-05-07 20:24 | 52.80454 | 12.28357 | 24107 ft | 404 kts | 311° |
| 2026-05-07 20:24 | 52.82322 | 12.24885 | 24111 ft | 404 kts | 311° |
| 2026-05-07 20:24 | 52.84189 | 12.21408 | 24111 ft | 404 kts | 311° |
| 2026-05-07 20:25 | 52.86055 | 12.17931 | 24114 ft | 404 kts | 311° |
| 2026-05-07 20:25 | 52.87921 | 12.14449 | 24114 ft | 404 kts | 311° |
| 2026-05-07 20:25 | 52.89786 | 12.10961 | 24114 ft | 404 kts | 311° |
| 2026-05-07 20:25 | 52.91649 | 12.07472 | 24114 ft | 404 kts | 311° |
| 2026-05-07 20:26 | 52.93509 | 12.03985 | 24113 ft | 403 kts | 311° |
| 2026-05-07 20:26 | 52.95366 | 12.00499 | 24116 ft | 404 kts | 311° |
| 2026-05-07 20:26 | 52.97226 | 11.97002 | 24116 ft | 404 kts | 311° |
| 2026-05-07 20:26 | 52.99081 | 11.93511 | 24116 ft | 404 kts | 311° |
| 2026-05-07 20:27 | 53.00938 | 11.90009 | 24116 ft | 404 kts | 311° |
| 2026-05-07 20:27 | 53.02793 | 11.86506 | 24116 ft | 404 kts | 311° |
| 2026-05-07 20:27 | 53.04649 | 11.82997 | 24119 ft | 404 kts | 311° |
| 2026-05-07 20:27 | 53.06503 | 11.79486 | 24115 ft | 403 kts | 311° |
| 2026-05-07 20:28 | 53.08347 | 11.75992 | 23938 ft | 400 kts | 310° |
| 2026-05-07 20:28 | 53.10173 | 11.72526 | 23526 ft | 397 kts | 310° |
| 2026-05-07 20:28 | 53.11989 | 11.69074 | 22932 ft | 395 kts | 310° |
| 2026-05-07 20:28 | 53.13790 | 11.65643 | 22319 ft | 392 kts | 310° |
| 2026-05-07 20:29 | 53.15576 | 11.62236 | 21715 ft | 389 kts | 310° |
| 2026-05-07 20:29 | 53.17349 | 11.58851 | 21126 ft | 386 kts | 310° |
| 2026-05-07 20:29 | 53.19108 | 11.55488 | 20547 ft | 383 kts | 310° |
| 2026-05-07 20:29 | 53.20851 | 11.52150 | 19995 ft | 380 kts | 310° |
| 2026-05-07 20:30 | 53.22581 | 11.48833 | 19447 ft | 378 kts | 310° |
| 2026-05-07 20:30 | 53.24299 | 11.45535 | 18900 ft | 375 kts | 310° |
| 2026-05-07 20:30 | 53.26004 | 11.42259 | 18357 ft | 373 kts | 310° |
| 2026-05-07 20:30 | 53.27697 | 11.39000 | 17772 ft | 370 kts | 310° |
| 2026-05-07 20:31 | 53.29373 | 11.35769 | 17192 ft | 367 kts | 310° |
| 2026-05-07 20:31 | 53.31037 | 11.32559 | 16639 ft | 364 kts | 310° |
| 2026-05-07 20:31 | 53.32689 | 11.29367 | 16094 ft | 361 kts | 310° |
| 2026-05-07 20:31 | 53.34324 | 11.26204 | 15583 ft | 358 kts | 310° |
| 2026-05-07 20:32 | 53.35945 | 11.23063 | 15051 ft | 355 kts | 310° |
| 2026-05-07 20:32 | 53.37554 | 11.19942 | 14548 ft | 353 kts | 310° |
| 2026-05-07 20:32 | 53.39131 | 11.16876 | 14012 ft | 352 kts | 310° |
| 2026-05-07 20:32 | 53.40741 | 11.13744 | 13459 ft | 349 kts | 310° |
| 2026-05-07 20:33 | 53.42317 | 11.10675 | 12940 ft | 346 kts | 310° |
| 2026-05-07 20:33 | 53.43859 | 11.07668 | 12421 ft | 343 kts | 310° |
| 2026-05-07 20:33 | 53.45408 | 11.04644 | 11906 ft | 341 kts | 310° |
| 2026-05-07 20:33 | 53.46948 | 11.01635 | 11397 ft | 338 kts | 310° |
| 2026-05-07 20:34 | 53.48447 | 10.98607 | 10891 ft | 336 kts | 304° |
| 2026-05-07 20:34 | 53.49522 | 10.95149 | 10513 ft | 330 kts | 294° |
| 2026-05-07 20:34 | 53.50441 | 10.91702 | 10382 ft | 317 kts | 294° |
| 2026-05-07 20:34 | 53.51323 | 10.88391 | 10250 ft | 304 kts | 294° |
| 2026-05-07 20:35 | 53.52169 | 10.85213 | 10127 ft | 292 kts | 294° |
| 2026-05-07 20:35 | 53.52991 | 10.82122 | 9777 ft | 288 kts | 294° |
| 2026-05-07 20:35 | 53.53804 | 10.79049 | 9343 ft | 287 kts | 294° |
| 2026-05-07 20:35 | 53.54608 | 10.75974 | 8888 ft | 287 kts | 294° |
| 2026-05-07 20:36 | 53.55403 | 10.72909 | 8509 ft | 285 kts | 294° |
| 2026-05-07 20:36 | 53.56193 | 10.69860 | 8110 ft | 283 kts | 294° |
| 2026-05-07 20:36 | 53.56974 | 10.66832 | 7729 ft | 281 kts | 294° |
| 2026-05-07 20:36 | 53.57750 | 10.63814 | 7349 ft | 280 kts | 294° |
| 2026-05-07 20:37 | 53.58509 | 10.60825 | 7183 ft | 279 kts | 292° |
| 2026-05-07 20:37 | 53.58817 | 10.57601 | 7147 ft | 282 kts | 265° |
| 2026-05-07 20:37 | 53.58389 | 10.54379 | 7148 ft | 283 kts | 254° |
| 2026-05-07 20:37 | 53.57857 | 10.51203 | 7122 ft | 281 kts | 254° |
| 2026-05-07 20:38 | 53.57327 | 10.48042 | 6917 ft | 280 kts | 254° |
| 2026-05-07 20:38 | 53.56800 | 10.44890 | 6561 ft | 280 kts | 254° |
| 2026-05-07 20:38 | 53.56272 | 10.41739 | 6168 ft | 279 kts | 254° |
| 2026-05-07 20:38 | 53.55758 | 10.38654 | 6018 ft | 268 kts | 254° |
| 2026-05-07 20:39 | 53.55259 | 10.35703 | 5901 ft | 256 kts | 254° |
| 2026-05-07 20:39 | 53.54783 | 10.32884 | 5794 ft | 246 kts | 254° |
| 2026-05-07 20:39 | 53.54316 | 10.30128 | 5437 ft | 247 kts | 254° |
| 2026-05-07 20:39 | 53.53848 | 10.27325 | 5096 ft | 251 kts | 254° |
| 2026-05-07 20:40 | 53.53376 | 10.24461 | 5003 ft | 255 kts | 254° |
| 2026-05-07 20:40 | 53.52905 | 10.21602 | 4998 ft | 254 kts | 254° |
| 2026-05-07 20:40 | 53.52436 | 10.18754 | 4926 ft | 252 kts | 254° |
| 2026-05-07 20:40 | 53.51971 | 10.15918 | 4645 ft | 252 kts | 254° |
| 2026-05-07 20:41 | 53.51508 | 10.13078 | 4311 ft | 252 kts | 254° |
| 2026-05-07 20:41 | 53.51051 | 10.10243 | 3976 ft | 251 kts | 254° |
| 2026-05-07 20:41 | 53.50597 | 10.07414 | 3652 ft | 251 kts | 254° |
| 2026-05-07 20:41 | 53.50148 | 10.04592 | 3340 ft | 249 kts | 254° |
| 2026-05-07 20:42 | 53.49705 | 10.01782 | 3068 ft | 247 kts | 254° |
| 2026-05-07 20:42 | 53.49270 | 9.99014 | 3004 ft | 250 kts | 254° |
| 2026-05-07 20:42 | 53.48828 | 9.96196 | 2996 ft | 249 kts | 254° |
| 2026-05-07 20:42 | 53.48387 | 9.93389 | 2996 ft | 249 kts | 254° |
| 2026-05-07 20:43 | 53.47947 | 9.90586 | 2997 ft | 249 kts | 254° |
| 2026-05-07 20:43 | 53.47505 | 9.87782 | 3000 ft | 248 kts | 254° |
| 2026-05-07 20:43 | 53.47069 | 9.85010 | 2996 ft | 240 kts | 254° |
| 2026-05-07 20:43 | 53.46659 | 9.82394 | 2995 ft | 223 kts | 254° |
| 2026-05-07 20:44 | 53.46361 | 9.79916 | 2994 ft | 218 kts | 272° |
| 2026-05-07 20:44 | 53.46555 | 9.78251 | 2996 ft | 221 kts | 295° |
| 2026-05-07 20:44 | 53.47478 | 9.76272 | 3006 ft | 216 kts | 322° |
| 2026-05-07 20:44 | 53.48684 | 9.74773 | 2999 ft | 215 kts | 333° |
| 2026-05-07 20:45 | 53.49977 | 9.73507 | 2916 ft | 217 kts | 336° |
| 2026-05-07 20:45 | 53.51264 | 9.73622 | 3366 ft | 178 kts | 54° |
| 2026-05-07 20:45 | 53.51958 | 9.76012 | 2916 ft | 181 kts | 74° |
| 2026-05-07 20:45 | 53.52376 | 9.78053 | 2474 ft | 180 kts | 66° |
| 2026-05-07 20:46 | 53.52813 | 9.79213 | 2407 ft | 169 kts | 49° |
| 2026-05-07 20:46 | 53.53546 | 9.80503 | 2503 ft | 136 kts | 46° |
| 2026-05-07 20:46 | 53.54259 | 9.81540 | 2557 ft | 135 kts | 45° |
| 2026-05-07 20:46 | 53.54948 | 9.82574 | 2593 ft | 132 kts | 47° |
| 2026-05-07 20:47 | 53.55578 | 9.83706 | 2601 ft | 135 kts | 53° |
| 2026-05-07 20:47 | 53.56171 | 9.84920 | 2313 ft | 133 kts | 54° |
| 2026-05-07 20:47 | 53.56731 | 9.86126 | 2019 ft | 131 kts | 52° |
| 2026-05-07 20:47 | 53.57320 | 9.87324 | 1636 ft | 135 kts | 52° |
| 2026-05-07 20:48 | 53.57913 | 9.88491 | 1371 ft | 129 kts | 51° |
| 2026-05-07 20:48 | 53.58494 | 9.89643 | 1244 ft | 132 kts | 52° |
| 2026-05-07 20:48 | 53.59077 | 9.90822 | 948 ft | 128 kts | 52° |
| 2026-05-07 20:48 | 53.59623 | 9.91952 | 820 ft | 124 kts | 50° |
| 2026-05-07 20:49 | 53.60201 | 9.93110 | 666 ft | 130 kts | 50° |
| 2026-05-07 20:49 | 53.60771 | 9.94257 | 420 ft | 125 kts | 51° |
| 2026-05-07 20:49 | 53.61344 | 9.95397 | 298 ft | 131 kts | 50° |
| 2026-05-07 20:49 | 53.61909 | 9.96537 | 134 ft | 122 kts | 50° |
| 2026-05-07 20:50 | 53.62434 | 9.97603 | 47 ft | 90 kts | 50° |
| 2026-05-07 20:50 | 53.62612 | 9.97964 | 48 ft | 0 kts | 50° |
| 2026-05-07 20:50 | 53.62623 | 9.97986 | 48 ft | 12 kts | 50° |
| 2026-05-07 20:50 | 53.62716 | 9.98176 | 50 ft | 25 kts | 51° |
| 2026-05-07 20:51 | 53.62719 | 9.98395 | 50 ft | 16 kts | 154° |
| 2026-05-07 20:51 | 53.62695 | 9.98427 | 50 ft | 0 kts | 139° |
| 2026-05-07 20:51 | 53.62678 | 9.98505 | 50 ft | 15 kts | 81° |
| 2026-05-07 20:52 | 53.62750 | 9.98670 | 50 ft | 19 kts | 50° |
| 2026-05-07 20:52 | 53.62839 | 9.98854 | 50 ft | 21 kts | 51° |
| 2026-05-07 20:52 | 53.62934 | 9.99048 | 50 ft | 22 kts | 50° |
| 2026-05-07 20:52 | 53.63034 | 9.99247 | 50 ft | 23 kts | 51° |
| 2026-05-07 20:53 | 53.63129 | 9.99463 | 50 ft | 23 kts | 53° |
| 2026-05-07 20:53 | 53.63212 | 9.99647 | 50 ft | 9 kts | 49° |
| 2026-05-07 20:53 | 53.63279 | 9.99767 | 50 ft | 18 kts | 46° |
| 2026-05-07 20:53 | 53.63318 | 9.99841 | 50 ft | 6 kts | 49° |
| 2026-05-07 20:54 | 53.63378 | 9.99961 | 50 ft | 19 kts | 50° |
| 2026-05-07 20:54 | 53.63430 | 10.00145 | 50 ft | 13 kts | 115° |
| 2026-05-07 20:54 | 53.63355 | 10.00229 | 47 ft | 14 kts | 172° |
| 2026-05-07 20:54 | 53.63258 | 10.00252 | 50 ft | 10 kts | 145° |
| 2026-05-07 20:55 | 53.63247 | 10.00357 | 50 ft | 0 kts | 84° |